Verstervig, Denmark
Current Conditions -  °F | °C
As of 5:50 AM on Thursday 23 Oct 2014 (Local Time) from EKKA Reporting Station
Broken Clouds Broken Clouds  
Wind Chill:   Ceiling: 7200
Heat Index:   Visibility: 6mi
Dew Point:   Wind: 3mph
Humidity: 100%   Direction: 200°SSW
Pressure: 30.03"   Gusts: NA
Location:  56.7°N, 8.22°E
Report Text: EKKA 230350Z AUTO 20003KT 9999NDV SCT029/// BKN072///09/09 Q1017
Loading
Personal Weather Stations






























Interactive Weather Map
Tropical Storm Tracking
New forecast layout! Learn more

10-Day Weather Forecast

Advertisements
Track Severe Weather on mobile